sensor_id;sensor_type;location;lat;lon;timestamp;pressure;altitude;pressure_sealevel;temperature;humidity
56594;BME280;42474;51.660;5.824;2023-05-21T00:02:08;1017.8;;;15.2;58.5
56594;BME280;42474;51.660;5.824;2023-05-21T00:06:08;1017.8;;;15.2;58.5
56594;BME280;42474;51.660;5.824;2023-05-21T00:10:08;1017.7;;;15.2;59
56594;BME280;42474;51.660;5.824;2023-05-21T00:14:08;1017.7;;;15.1;59.5
56594;BME280;42474;51.660;5.824;2023-05-21T00:18:08;1017.7;;;15.1;59.5
56594;BME280;42474;51.660;5.824;2023-05-21T00:22:08;1017.6;;;15.1;60
56594;BME280;42474;51.660;5.824;2023-05-21T00:26:08;1017.6;;;15.1;60.5
56594;BME280;42474;51.660;5.824;2023-05-21T00:30:08;1017.5;;;15.1;60.5
56594;BME280;42474;51.660;5.824;2023-05-21T00:34:08;1017.5;;;15.1;61.5
56594;BME280;42474;51.660;5.824;2023-05-21T00:38:08;1017.5;;;15.2;60.5
56594;BME280;42474;51.660;5.824;2023-05-21T00:42:08;1017.4;;;15.2;60
56594;BME280;42474;51.660;5.824;2023-05-21T00:46:09;1017.4;;;15.2;60
56594;BME280;42474;51.660;5.824;2023-05-21T00:50:09;1017.4;;;15.3;60
56594;BME280;42474;51.660;5.824;2023-05-21T00:54:08;1017.4;;;15.3;59.5
56594;BME280;42474;51.660;5.824;2023-05-21T00:58:08;1017.3;;;15.3;60
56594;BME280;42474;51.660;5.824;2023-05-21T01:02:08;1017.3;;;15.3;59.5
56594;BME280;42474;51.660;5.824;2023-05-21T01:06:08;1017.3;;;15.3;60
56594;BME280;42474;51.660;5.824;2023-05-21T01:10:08;1017.3;;;15.3;60
56594;BME280;42474;51.660;5.824;2023-05-21T01:14:08;1017.3;;;15.4;60
56594;BME280;42474;51.660;5.824;2023-05-21T01:18:08;1017.3;;;15.4;60
56594;BME280;42474;51.660;5.824;2023-05-21T01:22:08;1017.2;;;15.4;60
56594;BME280;42474;51.660;5.824;2023-05-21T01:26:08;1017.2;;;15.4;60.5
56594;BME280;42474;51.660;5.824;2023-05-21T01:30:08;1017.2;;;15.5;60.5
56594;BME280;42474;51.660;5.824;2023-05-21T01:34:09;1017.2;;;15.5;61
56594;BME280;42474;51.660;5.824;2023-05-21T01:38:11;1017.2;;;15.5;61
56594;BME280;42474;51.660;5.824;2023-05-21T01:42:09;1017.2;;;15.6;60.5
56594;BME280;42474;51.660;5.824;2023-05-21T01:46:09;1017.2;;;15.6;61
56594;BME280;42474;51.660;5.824;2023-05-21T01:50:08;1017.1;;;15.7;60.5
56594;BME280;42474;51.660;5.824;2023-05-21T01:54:08;1017.1;;;15.7;60.5
56594;BME280;42474;51.660;5.824;2023-05-21T01:58:08;1017.1;;;15.7;61
56594;BME280;42474;51.660;5.824;2023-05-21T02:02:08;1017.1;;;15.7;61.5
56594;BME280;42474;51.660;5.824;2023-05-21T02:06:08;1017.1;;;15.7;61.5
56594;BME280;42474;51.660;5.824;2023-05-21T02:10:08;1017.1;;;15.7;61.5
56594;BME280;42474;51.660;5.824;2023-05-21T02:14:08;1017.1;;;15.8;61.5
56594;BME280;42474;51.660;5.824;2023-05-21T02:18:08;1017;;;15.8;61.5
56594;BME280;42474;51.660;5.824;2023-05-21T02:22:08;1017.1;;;15.8;62
56594;BME280;42474;51.660;5.824;2023-05-21T02:26:08;1017;;;15.8;61.5
56594;BME280;42474;51.660;5.824;2023-05-21T02:30:09;1017;;;15.7;62
56594;BME280;42474;51.660;5.824;2023-05-21T02:34:08;1017;;;15.7;62
56594;BME280;42474;51.660;5.824;2023-05-21T02:38:08;1017;;;15.7;62.5
56594;BME280;42474;51.660;5.824;2023-05-21T02:42:08;1017;;;15.6;62
56594;BME280;42474;51.660;5.824;2023-05-21T02:46:08;1017;;;15.6;62
56594;BME280;42474;51.660;5.824;2023-05-21T02:50:08;1017;;;15.5;61.5
56594;BME280;42474;51.660;5.824;2023-05-21T02:54:08;1016.9;;;15.5;61.5
56594;BME280;42474;51.660;5.824;2023-05-21T02:58:08;1016.9;;;15.4;61.5
56594;BME280;42474;51.660;5.824;2023-05-21T03:02:08;1016.9;;;15.4;61.5
56594;BME280;42474;51.660;5.824;2023-05-21T03:06:08;1016.9;;;15.3;62
56594;BME280;42474;51.660;5.824;2023-05-21T03:10:08;1016.8;;;15.3;62
56594;BME280;42474;51.660;5.824;2023-05-21T03:14:08;1016.8;;;15.2;62.5
56594;BME280;42474;51.660;5.824;2023-05-21T03:18:08;1016.8;;;15.2;62.5
56594;BME280;42474;51.660;5.824;2023-05-21T03:22:08;1016.8;;;15.1;62
56594;BME280;42474;51.660;5.824;2023-05-21T03:26:08;1016.8;;;15.1;62
56594;BME280;42474;51.660;5.824;2023-05-21T03:30:08;1016.7;;;15.1;62.5
56594;BME280;42474;51.660;5.824;2023-05-21T03:34:08;1016.7;;;15;62.5
56594;BME280;42474;51.660;5.824;2023-05-21T03:38:08;1016.7;;;15;62.5
56594;BME280;42474;51.660;5.824;2023-05-21T03:42:08;1016.7;;;15;63
56594;BME280;42474;51.660;5.824;2023-05-21T03:46:08;1016.8;;;14.9;63
56594;BME280;42474;51.660;5.824;2023-05-21T03:50:08;1016.8;;;14.9;63
56594;BME280;42474;51.660;5.824;2023-05-21T03:54:08;1016.8;;;14.9;63
56594;BME280;42474;51.660;5.824;2023-05-21T03:58:08;1016.8;;;14.9;63.5
56594;BME280;42474;51.660;5.824;2023-05-21T04:02:08;1016.7;;;14.9;63.5
56594;BME280;42474;51.660;5.824;2023-05-21T04:06:08;1016.8;;;14.9;63.5
56594;BME280;42474;51.660;5.824;2023-05-21T04:10:08;1016.8;;;14.9;63.5
56594;BME280;42474;51.660;5.824;2023-05-21T04:14:08;1016.8;;;14.9;63.5
56594;BME280;42474;51.660;5.824;2023-05-21T04:18:08;1016.8;;;14.9;63.5
56594;BME280;42474;51.660;5.824;2023-05-21T04:22:09;1016.8;;;14.9;64
56594;BME280;42474;51.660;5.824;2023-05-21T04:26:08;1016.8;;;14.9;64
56594;BME280;42474;51.660;5.824;2023-05-21T04:30:08;1016.8;;;14.9;64
56594;BME280;42474;51.660;5.824;2023-05-21T04:34:08;1016.9;;;14.9;64.5
56594;BME280;42474;51.660;5.824;2023-05-21T04:38:08;1016.8;;;14.9;64
56594;BME280;42474;51.660;5.824;2023-05-21T04:42:08;1016.9;;;15;64.5
56594;BME280;42474;51.660;5.824;2023-05-21T04:46:08;1016.9;;;15;65
56594;BME280;42474;51.660;5.824;2023-05-21T04:50:08;1017;;;15;65.5
56594;BME280;42474;51.660;5.824;2023-05-21T04:54:08;1016.9;;;15;65
56594;BME280;42474;51.660;5.824;2023-05-21T04:58:08;1016.9;;;15.1;66
56594;BME280;42474;51.660;5.824;2023-05-21T05:02:08;1016.9;;;15.1;66
56594;BME280;42474;51.660;5.824;2023-05-21T05:06:08;1016.9;;;15.2;65.5
56594;BME280;42474;51.660;5.824;2023-05-21T05:10:08;1016.9;;;15.3;65.5
56594;BME280;42474;51.660;5.824;2023-05-21T05:14:08;1016.9;;;15.3;65.5
56594;BME280;42474;51.660;5.824;2023-05-21T05:18:08;1016.9;;;15.4;66
56594;BME280;42474;51.660;5.824;2023-05-21T05:22:09;1016.8;;;15.4;66
56594;BME280;42474;51.660;5.824;2023-05-21T05:26:09;1016.8;;;15.5;66
56594;BME280;42474;51.660;5.824;2023-05-21T05:30:08;1016.8;;;15.5;66.5
56594;BME280;42474;51.660;5.824;2023-05-21T05:34:08;1016.8;;;15.6;67
56594;BME280;42474;51.660;5.824;2023-05-21T05:38:08;1016.7;;;15.7;67
56594;BME280;42474;51.660;5.824;2023-05-21T05:42:08;1016.7;;;15.7;66.5
56594;BME280;42474;51.660;5.824;2023-05-21T05:46:08;1016.8;;;15.8;66.5
56594;BME280;42474;51.660;5.824;2023-05-21T05:50:08;1016.8;;;15.9;67
56594;BME280;42474;51.660;5.824;2023-05-21T05:54:08;1016.8;;;16;67
56594;BME280;42474;51.660;5.824;2023-05-21T05:58:08;1016.8;;;16;67
56594;BME280;42474;51.660;5.824;2023-05-21T06:02:08;1016.8;;;16.1;67
56594;BME280;42474;51.660;5.824;2023-05-21T06:06:08;1016.9;;;16.2;67
56594;BME280;42474;51.660;5.824;2023-05-21T06:10:08;1016.8;;;16.3;66.5
56594;BME280;42474;51.660;5.824;2023-05-21T06:14:08;1016.8;;;16.4;66
56594;BME280;42474;51.660;5.824;2023-05-21T06:18:08;1016.8;;;16.6;66
56594;BME280;42474;51.660;5.824;2023-05-21T06:22:08;1016.8;;;16.7;66
56594;BME280;42474;51.660;5.824;2023-05-21T06:26:08;1016.9;;;16.8;66
56594;BME280;42474;51.660;5.824;2023-05-21T06:30:08;1016.9;;;16.8;65.5
56594;BME280;42474;51.660;5.824;2023-05-21T06:34:08;1016.9;;;17;65.5
56594;BME280;42474;51.660;5.824;2023-05-21T06:38:08;1016.9;;;17;65
56594;BME280;42474;51.660;5.824;2023-05-21T06:42:08;1016.9;;;17;65
56594;BME280;42474;51.660;5.824;2023-05-21T06:46:08;1016.8;;;17.1;65
56594;BME280;42474;51.660;5.824;2023-05-21T06:50:08;1016.8;;;17.2;65
56594;BME280;42474;51.660;5.824;2023-05-21T06:54:08;1016.8;;;17.2;65
56594;BME280;42474;51.660;5.824;2023-05-21T06:58:08;1016.8;;;17.2;65
56594;BME280;42474;51.660;5.824;2023-05-21T07:02:08;1016.7;;;17.2;65
56594;BME280;42474;51.660;5.824;2023-05-21T07:06:08;1016.8;;;17.3;65
56594;BME280;42474;51.660;5.824;2023-05-21T07:10:09;1016.7;;;17.4;65
56594;BME280;42474;51.660;5.824;2023-05-21T07:14:08;1016.6;;;17.5;65
56594;BME280;42474;51.660;5.824;2023-05-21T07:18:08;1016.6;;;17.7;64.5
56594;BME280;42474;51.660;5.824;2023-05-21T07:22:08;1016.5;;;18;64
56594;BME280;42474;51.660;5.824;2023-05-21T07:26:08;1016.6;;;18.2;64
56594;BME280;42474;51.660;5.824;2023-05-21T07:30:09;1016.5;;;18.7;64
56594;BME280;42474;51.660;5.824;2023-05-21T07:34:08;1016.4;;;19.1;62.5
56594;BME280;42474;51.660;5.824;2023-05-21T07:38:08;1016.5;;;19.2;61.5
56594;BME280;42474;51.660;5.824;2023-05-21T07:42:08;1016.4;;;19.4;61.5
56594;BME280;42474;51.660;5.824;2023-05-21T07:46:08;1016.4;;;19.6;61.5
56594;BME280;42474;51.660;5.824;2023-05-21T07:50:09;1016.4;;;19.9;61.5
56594;BME280;42474;51.660;5.824;2023-05-21T07:54:08;1016.4;;;20.2;60.5
56594;BME280;42474;51.660;5.824;2023-05-21T07:58:08;1016.5;;;20.4;59.5
56594;BME280;42474;51.660;5.824;2023-05-21T08:02:08;1016.5;;;20.4;59
56594;BME280;42474;51.660;5.824;2023-05-21T08:06:08;1016.5;;;20.3;58.5
56594;BME280;42474;51.660;5.824;2023-05-21T08:10:08;1016.4;;;20.4;59
56594;BME280;42474;51.660;5.824;2023-05-21T08:14:08;1016.4;;;20.4;58.5
56594;BME280;42474;51.660;5.824;2023-05-21T08:18:08;1016.4;;;20.4;58.5
56594;BME280;42474;51.660;5.824;2023-05-21T08:22:08;1016.4;;;20.6;59
56594;BME280;42474;51.660;5.824;2023-05-21T08:26:08;1016.4;;;20.8;58
56594;BME280;42474;51.660;5.824;2023-05-21T08:30:08;1016.4;;;20.8;58
56594;BME280;42474;51.660;5.824;2023-05-21T08:34:08;1016.3;;;21;58
56594;BME280;42474;51.660;5.824;2023-05-21T08:38:08;1016.3;;;21.2;57.5
56594;BME280;42474;51.660;5.824;2023-05-21T08:42:10;1016.4;;;21.4;57
56594;BME280;42474;51.660;5.824;2023-05-21T08:46:08;1016.3;;;21.5;56.5
56594;BME280;42474;51.660;5.824;2023-05-21T08:50:10;1016.2;;;21.7;56.5
56594;BME280;42474;51.660;5.824;2023-05-21T08:54:08;1016.2;;;21.9;56.5
56594;BME280;42474;51.660;5.824;2023-05-21T08:58:08;1016.1;;;22.1;56
56594;BME280;42474;51.660;5.824;2023-05-21T09:02:09;1016.1;;;22.3;56
56594;BME280;42474;51.660;5.824;2023-05-21T09:06:09;1016.1;;;22.4;55.5
56594;BME280;42474;51.660;5.824;2023-05-21T09:10:11;1016.1;;;22.3;55
56594;BME280;42474;51.660;5.824;2023-05-21T09:14:08;1016.1;;;22.4;55
56594;BME280;42474;51.660;5.824;2023-05-21T09:18:08;1016.1;;;22.3;54.5
56594;BME280;42474;51.660;5.824;2023-05-21T09:22:08;1016;;;22.4;55
56594;BME280;42474;51.660;5.824;2023-05-21T09:26:09;1016;;;22.4;55
56594;BME280;42474;51.660;5.824;2023-05-21T09:30:09;1016;;;22.4;54.5
56594;BME280;42474;51.660;5.824;2023-05-21T09:34:08;1015.9;;;22.4;54.5
56594;BME280;42474;51.660;5.824;2023-05-21T09:38:09;1016;;;22.4;54.5
56594;BME280;42474;51.660;5.824;2023-05-21T09:42:08;1016.1;;;22.3;54.5
56594;BME280;42474;51.660;5.824;2023-05-21T09:46:08;1016;;;22.2;54.5
56594;BME280;42474;51.660;5.824;2023-05-21T09:50:09;1015.9;;;22.1;54.5
56594;BME280;42474;51.660;5.824;2023-05-21T09:54:09;1015.9;;;22;54.5
56594;BME280;42474;51.660;5.824;2023-05-21T09:58:09;1016;;;22;55
56594;BME280;42474;51.660;5.824;2023-05-21T10:02:14;1016;;;22;55
56594;BME280;42474;51.660;5.824;2023-05-21T10:06:08;1015.9;;;22;55.5
56594;BME280;42474;51.660;5.824;2023-05-21T10:10:09;1015.8;;;22.1;55.5
56594;BME280;42474;51.660;5.824;2023-05-21T10:14:10;1015.9;;;22.2;55.5
56594;BME280;42474;51.660;5.824;2023-05-21T10:18:09;1015.8;;;22.3;55.5
56594;BME280;42474;51.660;5.824;2023-05-21T10:22:08;1015.7;;;22.4;55.5
56594;BME280;42474;51.660;5.824;2023-05-21T10:26:08;1015.7;;;22.4;55.5
56594;BME280;42474;51.660;5.824;2023-05-21T10:30:09;1015.7;;;22.7;55.5
56594;BME280;42474;51.660;5.824;2023-05-21T10:34:09;1015.7;;;22.9;55
56594;BME280;42474;51.660;5.824;2023-05-21T10:38:08;1015.7;;;23;55
56594;BME280;42474;51.660;5.824;2023-05-21T10:42:14;1015.7;;;23.1;54.5
56594;BME280;42474;51.660;5.824;2023-05-21T10:46:14;1015.6;;;23.2;54.5
56594;BME280;42474;51.660;5.824;2023-05-21T16:14:09;1013.8;;;28.2;43
56594;BME280;42474;51.660;5.824;2023-05-21T16:18:09;1013.8;;;28.1;43
56594;BME280;42474;51.660;5.824;2023-05-21T16:22:09;1013.8;;;28.1;43
56594;BME280;42474;51.660;5.824;2023-05-21T16:26:09;1013.8;;;28;43.5
56594;BME280;42474;51.660;5.824;2023-05-21T16:30:09;1013.8;;;28.1;43.5
56594;BME280;42474;51.660;5.824;2023-05-21T16:34:09;1013.8;;;28.2;43.5
56594;BME280;42474;51.660;5.824;2023-05-21T16:38:09;1013.8;;;28.4;43.5
56594;BME280;42474;51.660;5.824;2023-05-21T16:42:09;1013.8;;;28.5;43
56594;BME280;42474;51.660;5.824;2023-05-21T16:46:09;1013.8;;;28.4;42.5
56594;BME280;42474;51.660;5.824;2023-05-21T16:50:09;1013.8;;;28.4;42.5
56594;BME280;42474;51.660;5.824;2023-05-21T16:54:09;1013.8;;;28.4;42.5
56594;BME280;42474;51.660;5.824;2023-05-21T16:58:09;1013.8;;;28.2;42.5
56594;BME280;42474;51.660;5.824;2023-05-21T17:02:09;1013.8;;;28.1;42.5
56594;BME280;42474;51.660;5.824;2023-05-21T17:06:09;1013.8;;;28;43
56594;BME280;42474;51.660;5.824;2023-05-21T17:10:09;1013.8;;;27.9;43
56594;BME280;42474;51.660;5.824;2023-05-21T17:14:09;1013.8;;;27.9;43.5
56594;BME280;42474;51.660;5.824;2023-05-21T17:18:09;1013.8;;;27.8;43.5
56594;BME280;42474;51.660;5.824;2023-05-21T17:22:09;1013.8;;;27.7;43.5
56594;BME280;42474;51.660;5.824;2023-05-21T17:34:10;1013.8;;;27.6;43.5
56594;BME280;42474;51.660;5.824;2023-05-21T17:38:09;1013.8;;;27.5;44
56594;BME280;42474;51.660;5.824;2023-05-21T17:42:09;1013.8;;;27.4;44
56594;BME280;42474;51.660;5.824;2023-05-21T17:46:09;1013.8;;;27.2;44
56594;BME280;42474;51.660;5.824;2023-05-21T17:50:09;1013.8;;;27.1;44.5
56594;BME280;42474;51.660;5.824;2023-05-21T17:54:09;1013.9;;;27;44.5
56594;BME280;42474;51.660;5.824;2023-05-21T17:58:09;1013.9;;;26.8;44.5
56594;BME280;42474;51.660;5.824;2023-05-21T18:02:09;1013.9;;;26.7;45
56594;BME280;42474;51.660;5.824;2023-05-21T18:06:09;1013.9;;;26.5;45.5
56594;BME280;42474;51.660;5.824;2023-05-21T18:10:09;1013.9;;;26.4;45.5
56594;BME280;42474;51.660;5.824;2023-05-21T18:14:09;1013.9;;;26.3;46
56594;BME280;42474;51.660;5.824;2023-05-21T18:18:09;1013.9;;;26.2;46
56594;BME280;42474;51.660;5.824;2023-05-21T18:26:09;1013.9;;;26;47
56594;BME280;42474;51.660;5.824;2023-05-21T18:30:09;1013.9;;;25.9;47
56594;BME280;42474;51.660;5.824;2023-05-21T18:34:10;1013.9;;;25.8;47
56594;BME280;42474;51.660;5.824;2023-05-21T18:38:09;1013.9;;;25.7;47.5
56594;BME280;42474;51.660;5.824;2023-05-21T18:42:10;1013.9;;;25.6;47.5
56594;BME280;42474;51.660;5.824;2023-05-21T18:46:09;1013.9;;;25.5;47.5
56594;BME280;42474;51.660;5.824;2023-05-21T18:50:11;1013.9;;;25.4;48
56594;BME280;42474;51.660;5.824;2023-05-21T18:54:09;1013.9;;;25.3;48
56594;BME280;42474;51.660;5.824;2023-05-21T18:58:10;1013.9;;;25.1;48.5
56594;BME280;42474;51.660;5.824;2023-05-21T19:02:09;1013.9;;;25;48.5
56594;BME280;42474;51.660;5.824;2023-05-21T19:06:10;1013.8;;;24.8;48.5
56594;BME280;42474;51.660;5.824;2023-05-21T19:10:09;1013.8;;;24.7;49
56594;BME280;42474;51.660;5.824;2023-05-21T19:14:10;1013.9;;;24.5;49
56594;BME280;42474;51.660;5.824;2023-05-21T19:18:09;1013.8;;;24.4;49.5
56594;BME280;42474;51.660;5.824;2023-05-21T19:22:09;1013.8;;;24.2;50
56594;BME280;42474;51.660;5.824;2023-05-21T19:26:10;1013.8;;;24.1;50
56594;BME280;42474;51.660;5.824;2023-05-21T19:30:09;1013.8;;;23.9;50.5
56594;BME280;42474;51.660;5.824;2023-05-21T19:34:09;1013.9;;;23.8;50.5
56594;BME280;42474;51.660;5.824;2023-05-21T19:38:09;1013.9;;;23.7;50.5
56594;BME280;42474;51.660;5.824;2023-05-21T19:42:09;1013.9;;;23.7;51
56594;BME280;42474;51.660;5.824;2023-05-21T19:46:09;1013.9;;;23.6;51
56594;BME280;42474;51.660;5.824;2023-05-21T19:50:09;1014;;;23.5;51
56594;BME280;42474;51.660;5.824;2023-05-21T19:54:09;1014;;;23.3;51.5
56594;BME280;42474;51.660;5.824;2023-05-21T19:58:09;1014.1;;;23.2;52
56594;BME280;42474;51.660;5.824;2023-05-21T20:02:09;1014.1;;;23.1;52
56594;BME280;42474;51.660;5.824;2023-05-21T20:06:09;1014.1;;;22.9;52.5
56594;BME280;42474;51.660;5.824;2023-05-21T20:10:09;1014.1;;;22.8;53
56594;BME280;42474;51.660;5.824;2023-05-21T20:14:09;1014.1;;;22.7;53
56594;BME280;42474;51.660;5.824;2023-05-21T20:18:09;1014.1;;;22.6;53
56594;BME280;42474;51.660;5.824;2023-05-21T20:22:09;1014.1;;;22.5;53.5
56594;BME280;42474;51.660;5.824;2023-05-21T20:26:09;1014.1;;;22.4;53.5
56594;BME280;42474;51.660;5.824;2023-05-21T20:30:09;1014.1;;;22.3;54
56594;BME280;42474;51.660;5.824;2023-05-21T20:34:09;1014.1;;;22.1;54.5
56594;BME280;42474;51.660;5.824;2023-05-21T20:38:09;1014.1;;;22;54.5
56594;BME280;42474;51.660;5.824;2023-05-21T20:42:09;1014.1;;;21.8;55
56594;BME280;42474;51.660;5.824;2023-05-21T20:46:09;1014.1;;;21.7;55.5
56594;BME280;42474;51.660;5.824;2023-05-21T20:50:09;1014;;;21.6;56
56594;BME280;42474;51.660;5.824;2023-05-21T20:54:09;1014;;;21.5;56.5
56594;BME280;42474;51.660;5.824;2023-05-21T20:58:09;1014;;;21.4;57.5
56594;BME280;42474;51.660;5.824;2023-05-21T21:02:09;1014.1;;;21.2;58
56594;BME280;42474;51.660;5.824;2023-05-21T21:06:09;1014.1;;;21.1;58.5
56594;BME280;42474;51.660;5.824;2023-05-21T21:10:09;1014.1;;;21;58.5
56594;BME280;42474;51.660;5.824;2023-05-21T21:14:09;1014.1;;;20.9;58.5
56594;BME280;42474;51.660;5.824;2023-05-21T21:18:09;1014.1;;;20.8;59.5
56594;BME280;42474;51.660;5.824;2023-05-21T21:22:09;1014.1;;;20.7;60
56594;BME280;42474;51.660;5.824;2023-05-21T21:26:09;1014.1;;;20.5;60.5
56594;BME280;42474;51.660;5.824;2023-05-21T21:30:09;1014.1;;;20.5;61
56594;BME280;42474;51.660;5.824;2023-05-21T21:34:09;1014.1;;;20.4;61
56594;BME280;42474;51.660;5.824;2023-05-21T21:38:09;1014.1;;;20.3;62
56594;BME280;42474;51.660;5.824;2023-05-21T21:42:09;1014.2;;;20.2;62.5
56594;BME280;42474;51.660;5.824;2023-05-21T21:46:09;1014.3;;;20.1;63
56594;BME280;42474;51.660;5.824;2023-05-21T21:50:09;1014.4;;;20.1;63
56594;BME280;42474;51.660;5.824;2023-05-21T21:54:09;1014.5;;;20.1;63.5
56594;BME280;42474;51.660;5.824;2023-05-21T21:58:09;1014.6;;;20;63.5
